sensor_id;sensor_type;location;lat;lon;timestamp;pressure;altitude;pressure_sealevel;temperature
41593;BMP180;28026;48.562;14.440;2023-04-01T00:01:48;92355.00;;;13.40
41593;BMP180;28026;48.562;14.440;2023-04-01T00:04:19;92343.00;;;13.40
41593;BMP180;28026;48.562;14.440;2023-04-01T00:06:51;92344.00;;;13.40
41593;BMP180;28026;48.562;14.440;2023-04-01T00:09:22;92337.00;;;13.40
41593;BMP180;28026;48.562;14.440;2023-04-01T00:11:53;92338.00;;;13.40
41593;BMP180;28026;48.562;14.440;2023-04-01T00:14:23;92340.00;;;13.40
41593;BMP180;28026;48.562;14.440;2023-04-01T00:16:54;92339.00;;;13.40
41593;BMP180;28026;48.562;14.440;2023-04-01T00:19:25;92355.00;;;13.50
41593;BMP180;28026;48.562;14.440;2023-04-01T00:21:56;92357.00;;;13.50
41593;BMP180;28026;48.562;14.440;2023-04-01T00:24:27;92362.00;;;13.50
41593;BMP180;28026;48.562;14.440;2023-04-01T00:26:58;92360.00;;;13.60
41593;BMP180;28026;48.562;14.440;2023-04-01T00:29:29;92363.00;;;13.60
41593;BMP180;28026;48.562;14.440;2023-04-01T00:32:01;92371.00;;;13.60
41593;BMP180;28026;48.562;14.440;2023-04-01T00:34:32;92375.00;;;13.60
41593;BMP180;28026;48.562;14.440;2023-04-01T00:37:03;92375.00;;;13.60
41593;BMP180;28026;48.562;14.440;2023-04-01T00:39:35;92371.00;;;13.60
41593;BMP180;28026;48.562;14.440;2023-04-01T00:42:08;92375.00;;;13.50
41593;BMP180;28026;48.562;14.440;2023-04-01T00:44:41;92389.00;;;13.50
41593;BMP180;28026;48.562;14.440;2023-04-01T00:47:13;92388.00;;;13.50
41593;BMP180;28026;48.562;14.440;2023-04-01T00:49:49;92378.00;;;13.50
41593;BMP180;28026;48.562;14.440;2023-04-01T00:52:25;92391.00;;;13.40
41593;BMP180;28026;48.562;14.440;2023-04-01T00:54:59;92383.00;;;13.40
41593;BMP180;28026;48.562;14.440;2023-04-01T00:57:37;92371.00;;;13.40
41593;BMP180;28026;48.562;14.440;2023-04-01T01:00:12;92387.00;;;13.40
41593;BMP180;28026;48.562;14.440;2023-04-01T01:02:47;92370.00;;;13.30
41593;BMP180;28026;48.562;14.440;2023-04-01T01:05:37;92388.00;;;13.30
41593;BMP180;28026;48.562;14.440;2023-04-01T01:13:09;92372.00;;;13.20
41593;BMP180;28026;48.562;14.440;2023-04-01T01:18:53;92374.00;;;13.10
41593;BMP180;28026;48.562;14.440;2023-04-01T01:21:40;92375.00;;;13.10
41593;BMP180;28026;48.562;14.440;2023-04-01T01:24:54;92372.00;;;13.10
41593;BMP180;28026;48.562;14.440;2023-04-01T01:27:28;92358.00;;;13.00
41593;BMP180;28026;48.562;14.440;2023-04-01T01:36:26;92364.00;;;13.00
41593;BMP180;28026;48.562;14.440;2023-04-01T01:39:04;92364.00;;;13.00
41593;BMP180;28026;48.562;14.440;2023-04-01T01:41:41;92352.00;;;13.00
41593;BMP180;28026;48.562;14.440;2023-04-01T01:44:18;92370.00;;;13.00
41593;BMP180;28026;48.562;14.440;2023-04-01T01:46:51;92361.00;;;13.00
41593;BMP180;28026;48.562;14.440;2023-04-01T01:49:23;92369.00;;;13.00
41593;BMP180;28026;48.562;14.440;2023-04-01T01:51:56;92365.00;;;13.00
41593;BMP180;28026;48.562;14.440;2023-04-01T01:54:27;92364.00;;;12.90
41593;BMP180;28026;48.562;14.440;2023-04-01T01:57:08;92367.00;;;13.00
41593;BMP180;28026;48.562;14.440;2023-04-01T01:59:43;92359.00;;;12.90
41593;BMP180;28026;48.562;14.440;2023-04-01T02:02:18;92362.00;;;12.90
41593;BMP180;28026;48.562;14.440;2023-04-01T02:04:51;92346.00;;;12.90
41593;BMP180;28026;48.562;14.440;2023-04-01T02:07:33;92371.00;;;13.00
41593;BMP180;28026;48.562;14.440;2023-04-01T02:10:07;92360.00;;;13.00
41593;BMP180;28026;48.562;14.440;2023-04-01T02:12:42;92364.00;;;13.00
41593;BMP180;28026;48.562;14.440;2023-04-01T02:15:19;92354.00;;;13.00
41593;BMP180;28026;48.562;14.440;2023-04-01T02:17:52;92373.00;;;13.00
41593;BMP180;28026;48.562;14.440;2023-04-01T02:20:24;92371.00;;;13.00
41593;BMP180;28026;48.562;14.440;2023-04-01T02:22:57;92372.00;;;13.00
41593;BMP180;28026;48.562;14.440;2023-04-01T02:25:37;92373.00;;;13.00
41593;BMP180;28026;48.562;14.440;2023-04-01T02:28:12;92371.00;;;13.00
41593;BMP180;28026;48.562;14.440;2023-04-01T02:30:49;92363.00;;;13.00
41593;BMP180;28026;48.562;14.440;2023-04-01T02:33:21;92358.00;;;13.00
41593;BMP180;28026;48.562;14.440;2023-04-01T02:35:52;92357.00;;;13.10
41593;BMP180;28026;48.562;14.440;2023-04-01T02:38:23;92351.00;;;13.10
41593;BMP180;28026;48.562;14.440;2023-04-01T02:41:02;92351.00;;;13.00
41593;BMP180;28026;48.562;14.440;2023-04-01T02:43:33;92354.00;;;13.00
41593;BMP180;28026;48.562;14.440;2023-04-01T02:46:04;92350.00;;;13.00
41593;BMP180;28026;48.562;14.440;2023-04-01T02:48:35;92362.00;;;13.00
41593;BMP180;28026;48.562;14.440;2023-04-01T02:51:06;92350.00;;;13.00
41593;BMP180;28026;48.562;14.440;2023-04-01T02:53:37;92375.00;;;13.00
41593;BMP180;28026;48.562;14.440;2023-04-01T02:56:08;92364.00;;;13.00
41593;BMP180;28026;48.562;14.440;2023-04-01T02:58:38;92367.00;;;12.90
41593;BMP180;28026;48.562;14.440;2023-04-01T03:01:09;92369.00;;;12.90
41593;BMP180;28026;48.562;14.440;2023-04-01T03:03:41;92373.00;;;12.90
41593;BMP180;28026;48.562;14.440;2023-04-01T03:06:14;92374.00;;;12.90
41593;BMP180;28026;48.562;14.440;2023-04-01T03:08:46;92373.00;;;12.90
41593;BMP180;28026;48.562;14.440;2023-04-01T03:11:17;92365.00;;;12.90
41593;BMP180;28026;48.562;14.440;2023-04-01T03:13:48;92377.00;;;12.80
41593;BMP180;28026;48.562;14.440;2023-04-01T03:16:19;92378.00;;;12.80
41593;BMP180;28026;48.562;14.440;2023-04-01T03:18:50;92382.00;;;12.80
41593;BMP180;28026;48.562;14.440;2023-04-01T03:21:24;92383.00;;;12.80
41593;BMP180;28026;48.562;14.440;2023-04-01T03:23:55;92384.00;;;12.80
41593;BMP180;28026;48.562;14.440;2023-04-01T03:26:26;92377.00;;;12.80
41593;BMP180;28026;48.562;14.440;2023-04-01T03:29:00;92387.00;;;12.70
41593;BMP180;28026;48.562;14.440;2023-04-01T03:31:31;92378.00;;;12.80
41593;BMP180;28026;48.562;14.440;2023-04-01T03:34:02;92394.00;;;12.80
41593;BMP180;28026;48.562;14.440;2023-04-01T03:36:32;92390.00;;;12.80
41593;BMP180;28026;48.562;14.440;2023-04-01T03:39:04;92396.00;;;12.80
41593;BMP180;28026;48.562;14.440;2023-04-01T03:41:37;92389.00;;;12.80
41593;BMP180;28026;48.562;14.440;2023-04-01T03:44:08;92389.00;;;12.80
41593;BMP180;28026;48.562;14.440;2023-04-01T03:46:39;92384.00;;;12.80
41593;BMP180;28026;48.562;14.440;2023-04-01T03:49:11;92393.00;;;12.80
41593;BMP180;28026;48.562;14.440;2023-04-01T03:51:43;92396.00;;;12.80
41593;BMP180;28026;48.562;14.440;2023-04-01T03:54:14;92397.00;;;12.80
41593;BMP180;28026;48.562;14.440;2023-04-01T03:56:46;92396.00;;;12.80
41593;BMP180;28026;48.562;14.440;2023-04-01T03:59:17;92398.00;;;12.90
41593;BMP180;28026;48.562;14.440;2023-04-01T04:01:48;92403.00;;;12.90
41593;BMP180;28026;48.562;14.440;2023-04-01T04:04:19;92405.00;;;13.00
41593;BMP180;28026;48.562;14.440;2023-04-01T04:06:50;92395.00;;;12.90
41593;BMP180;28026;48.562;14.440;2023-04-01T04:09:22;92395.00;;;12.90
41593;BMP180;28026;48.562;14.440;2023-04-01T04:11:53;92403.00;;;12.90
41593;BMP180;28026;48.562;14.440;2023-04-01T04:14:24;92413.00;;;12.90
41593;BMP180;28026;48.562;14.440;2023-04-01T04:16:55;92403.00;;;12.90
41593;BMP180;28026;48.562;14.440;2023-04-01T04:19:26;92411.00;;;12.90
41593;BMP180;28026;48.562;14.440;2023-04-01T04:21:57;92407.00;;;12.90
41593;BMP180;28026;48.562;14.440;2023-04-01T04:24:31;92399.00;;;12.90
41593;BMP180;28026;48.562;14.440;2023-04-01T04:27:03;92411.00;;;12.90
41593;BMP180;28026;48.562;14.440;2023-04-01T04:29:34;92404.00;;;12.80
41593;BMP180;28026;48.562;14.440;2023-04-01T04:32:05;92395.00;;;12.80
41593;BMP180;28026;48.562;14.440;2023-04-01T04:34:36;92405.00;;;12.80
41593;BMP180;28026;48.562;14.440;2023-04-01T04:37:07;92412.00;;;12.80
41593;BMP180;28026;48.562;14.440;2023-04-01T04:39:38;92405.00;;;12.90
41593;BMP180;28026;48.562;14.440;2023-04-01T04:42:08;92417.00;;;12.80
41593;BMP180;28026;48.562;14.440;2023-04-01T04:44:39;92406.00;;;12.80
41593;BMP180;28026;48.562;14.440;2023-04-01T04:47:10;92415.00;;;12.80
41593;BMP180;28026;48.562;14.440;2023-04-01T04:49:41;92403.00;;;12.80
41593;BMP180;28026;48.562;14.440;2023-04-01T04:52:12;92411.00;;;12.80
41593;BMP180;28026;48.562;14.440;2023-04-01T04:54:43;92413.00;;;12.80
41593;BMP180;28026;48.562;14.440;2023-04-01T04:57:14;92410.00;;;12.90
41593;BMP180;28026;48.562;14.440;2023-04-01T04:59:45;92411.00;;;12.80
41593;BMP180;28026;48.562;14.440;2023-04-01T05:02:16;92415.00;;;12.80
41593;BMP180;28026;48.562;14.440;2023-04-01T05:04:47;92422.00;;;12.80
41593;BMP180;28026;48.562;14.440;2023-04-01T05:07:18;92420.00;;;12.90
41593;BMP180;28026;48.562;14.440;2023-04-01T05:09:48;92417.00;;;12.90
41593;BMP180;28026;48.562;14.440;2023-04-01T05:12:20;92424.00;;;12.90
41593;BMP180;28026;48.562;14.440;2023-04-01T05:14:51;92423.00;;;12.90
41593;BMP180;28026;48.562;14.440;2023-04-01T05:17:22;92422.00;;;12.90
41593;BMP180;28026;48.562;14.440;2023-04-01T05:19:53;92419.00;;;13.00
41593;BMP180;28026;48.562;14.440;2023-04-01T05:22:24;92428.00;;;13.00
41593;BMP180;28026;48.562;14.440;2023-04-01T05:24:55;92421.00;;;13.00
41593;BMP180;28026;48.562;14.440;2023-04-01T05:27:26;92423.00;;;13.00
41593;BMP180;28026;48.562;14.440;2023-04-01T05:29:57;92423.00;;;13.00
41593;BMP180;28026;48.562;14.440;2023-04-01T05:32:28;92441.00;;;13.10
41593;BMP180;28026;48.562;14.440;2023-04-01T05:35:01;92429.00;;;13.10
41593;BMP180;28026;48.562;14.440;2023-04-01T05:37:34;92430.00;;;13.10
41593;BMP180;28026;48.562;14.440;2023-04-01T05:40:06;92421.00;;;13.10
41593;BMP180;28026;48.562;14.440;2023-04-01T05:42:38;92416.00;;;13.10
41593;BMP180;28026;48.562;14.440;2023-04-01T05:45:09;92424.00;;;13.10
41593;BMP180;28026;48.562;14.440;2023-04-01T05:47:41;92433.00;;;13.20
41593;BMP180;28026;48.562;14.440;2023-04-01T05:50:12;92419.00;;;13.20
41593;BMP180;28026;48.562;14.440;2023-04-01T05:52:43;92426.00;;;13.20
41593;BMP180;28026;48.562;14.440;2023-04-01T05:55:15;92430.00;;;13.20
41593;BMP180;28026;48.562;14.440;2023-04-01T05:57:46;92429.00;;;13.20
41593;BMP180;28026;48.562;14.440;2023-04-01T06:00:19;92415.00;;;13.20
41593;BMP180;28026;48.562;14.440;2023-04-01T06:02:50;92430.00;;;13.30
41593;BMP180;28026;48.562;14.440;2023-04-01T06:05:29;92427.00;;;13.30
41593;BMP180;28026;48.562;14.440;2023-04-01T06:08:17;92419.00;;;13.30
41593;BMP180;28026;48.562;14.440;2023-04-01T06:21:07;92440.00;;;13.30
41593;BMP180;28026;48.562;14.440;2023-04-01T06:23:49;92436.00;;;13.40
41593;BMP180;28026;48.562;14.440;2023-04-01T06:35:51;92443.00;;;13.40
41593;BMP180;28026;48.562;14.440;2023-04-01T06:38:49;92449.00;;;13.50
41593;BMP180;28026;48.562;14.440;2023-04-01T06:45:15;92441.00;;;13.60
41593;BMP180;28026;48.562;14.440;2023-04-01T06:48:06;92444.00;;;13.60
41593;BMP180;28026;48.562;14.440;2023-04-01T06:50:59;92441.00;;;13.60
41593;BMP180;28026;48.562;14.440;2023-04-01T06:54:04;92447.00;;;13.60
41593;BMP180;28026;48.562;14.440;2023-04-01T06:56:58;92445.00;;;13.60
41593;BMP180;28026;48.562;14.440;2023-04-01T06:59:37;92446.00;;;13.70
41593;BMP180;28026;48.562;14.440;2023-04-01T07:02:43;92444.00;;;13.60
41593;BMP180;28026;48.562;14.440;2023-04-01T07:05:20;92451.00;;;13.60
41593;BMP180;28026;48.562;14.440;2023-04-01T07:07:59;92442.00;;;13.60
41593;BMP180;28026;48.562;14.440;2023-04-01T07:11:02;92454.00;;;13.50
41593;BMP180;28026;48.562;14.440;2023-04-01T07:13:41;92438.00;;;13.50
41593;BMP180;28026;48.562;14.440;2023-04-01T07:16:44;92437.00;;;13.50
41593;BMP180;28026;48.562;14.440;2023-04-01T07:19:52;92453.00;;;13.60
41593;BMP180;28026;48.562;14.440;2023-04-01T07:22:41;92450.00;;;13.50
41593;BMP180;28026;48.562;14.440;2023-04-01T07:25:17;92449.00;;;13.40
41593;BMP180;28026;48.562;14.440;2023-04-01T07:28:11;92449.00;;;13.40
41593;BMP180;28026;48.562;14.440;2023-04-01T07:36:43;92454.00;;;13.40
41593;BMP180;28026;48.562;14.440;2023-04-01T07:39:55;92461.00;;;13.40
41593;BMP180;28026;48.562;14.440;2023-04-01T07:43:08;92466.00;;;13.40
41593;BMP180;28026;48.562;14.440;2023-04-01T07:49:01;92462.00;;;13.50
41593;BMP180;28026;48.562;14.440;2023-04-01T07:51:46;92453.00;;;13.50
41593;BMP180;28026;48.562;14.440;2023-04-01T08:07:23;92469.00;;;13.90
41593;BMP180;28026;48.562;14.440;2023-04-01T08:10:32;92478.00;;;14.00
41593;BMP180;28026;48.562;14.440;2023-04-01T08:13:46;92473.00;;;14.20
41593;BMP180;28026;48.562;14.440;2023-04-01T08:17:07;92474.00;;;14.30
41593;BMP180;28026;48.562;14.440;2023-04-01T08:23:11;92478.00;;;14.30
41593;BMP180;28026;48.562;14.440;2023-04-01T08:26:02;92466.00;;;14.30
41593;BMP180;28026;48.562;14.440;2023-04-01T08:29:01;92491.00;;;14.30
41593;BMP180;28026;48.562;14.440;2023-04-01T08:32:41;92499.00;;;14.40
41593;BMP180;28026;48.562;14.440;2023-04-01T08:38:31;92477.00;;;14.30
41593;BMP180;28026;48.562;14.440;2023-04-01T09:07:51;92493.00;;;15.10
41593;BMP180;28026;48.562;14.440;2023-04-01T09:44:34;92495.00;;;15.70
41593;BMP180;28026;48.562;14.440;2023-04-01T09:50:52;92496.00;;;15.70
41593;BMP180;28026;48.562;14.440;2023-04-01T09:54:07;92506.00;;;15.70
41593;BMP180;28026;48.562;14.440;2023-04-01T09:57:05;92500.00;;;15.90
41593;BMP180;28026;48.562;14.440;2023-04-01T10:00:55;92487.00;;;15.90
41593;BMP180;28026;48.562;14.440;2023-04-01T10:07:39;92488.00;;;16.10
41593;BMP180;28026;48.562;14.440;2023-04-01T10:17:57;92492.00;;;16.90
41593;BMP180;28026;48.562;14.440;2023-04-01T10:21:21;92479.00;;;16.70
41593;BMP180;28026;48.562;14.440;2023-04-01T10:37:00;92503.00;;;16.30
41593;BMP180;28026;48.562;14.440;2023-04-01T10:40:34;92499.00;;;16.30
41593;BMP180;28026;48.562;14.440;2023-04-01T10:43:42;92498.00;;;16.30
41593;BMP180;28026;48.562;14.440;2023-04-01T10:56:39;92490.00;;;17.40
41593;BMP180;28026;48.562;14.440;2023-04-01T11:06:39;92474.00;;;16.70
41593;BMP180;28026;48.562;14.440;2023-04-01T11:16:53;92475.00;;;16.20
41593;BMP180;28026;48.562;14.440;2023-04-01T11:19:50;92497.00;;;16.20
41593;BMP180;28026;48.562;14.440;2023-04-01T11:23:11;92484.00;;;16.10
41593;BMP180;28026;48.562;14.440;2023-04-01T11:42:28;92483.00;;;17.70
41593;BMP180;28026;48.562;14.440;2023-04-01T11:58:42;92456.00;;;17.70
41593;BMP180;28026;48.562;14.440;2023-04-01T12:01:40;92454.00;;;17.90
41593;BMP180;28026;48.562;14.440;2023-04-01T12:26:10;92458.00;;;19.10
41593;BMP180;28026;48.562;14.440;2023-04-01T12:29:37;92459.00;;;19.00
41593;BMP180;28026;48.562;14.440;2023-04-01T12:42:51;92464.00;;;18.40
41593;BMP180;28026;48.562;14.440;2023-04-01T12:55:55;92465.00;;;17.70
41593;BMP180;28026;48.562;14.440;2023-04-01T13:09:24;92512.00;;;17.00
41593;BMP180;28026;48.562;14.440;2023-04-01T13:19:13;92507.00;;;16.60
41593;BMP180;28026;48.562;14.440;2023-04-01T13:25:26;92503.00;;;16.50
41593;BMP180;28026;48.562;14.440;2023-04-01T13:28:32;92498.00;;;16.70
41593;BMP180;28026;48.562;14.440;2023-04-01T13:32:03;92498.00;;;17.00
41593;BMP180;28026;48.562;14.440;2023-04-01T13:43:31;92494.00;;;17.00
41593;BMP180;28026;48.562;14.440;2023-04-01T13:47:00;92493.00;;;17.00
41593;BMP180;28026;48.562;14.440;2023-04-01T13:49:53;92496.00;;;17.20
41593;BMP180;28026;48.562;14.440;2023-04-01T13:56:33;92482.00;;;17.20
41593;BMP180;28026;48.562;14.440;2023-04-01T13:59:39;92490.00;;;17.20
41593;BMP180;28026;48.562;14.440;2023-04-01T14:02:49;92478.00;;;17.20
41593;BMP180;28026;48.562;14.440;2023-04-01T14:12:11;92481.00;;;17.10
41593;BMP180;28026;48.562;14.440;2023-04-01T14:19:11;92483.00;;;17.20
41593;BMP180;28026;48.562;14.440;2023-04-01T14:32:43;92497.00;;;16.80
41593;BMP180;28026;48.562;14.440;2023-04-01T14:43:10;92499.00;;;16.70
41593;BMP180;28026;48.562;14.440;2023-04-01T14:49:46;92478.00;;;16.50
41593;BMP180;28026;48.562;14.440;2023-04-01T14:52:54;92493.00;;;16.40
41593;BMP180;28026;48.562;14.440;2023-04-01T14:55:36;92487.00;;;16.30
41593;BMP180;28026;48.562;14.440;2023-04-01T14:58:23;92486.00;;;16.30
41593;BMP180;28026;48.562;14.440;2023-04-01T15:01:35;92488.00;;;16.20
41593;BMP180;28026;48.562;14.440;2023-04-01T15:10:10;92498.00;;;15.90
41593;BMP180;28026;48.562;14.440;2023-04-01T15:16:55;92515.00;;;15.60
41593;BMP180;28026;48.562;14.440;2023-04-01T15:26:36;92521.00;;;15.20
41593;BMP180;28026;48.562;14.440;2023-04-01T15:29:47;92529.00;;;15.10
41593;BMP180;28026;48.562;14.440;2023-04-01T15:34:17;92518.00;;;14.90
41593;BMP180;28026;48.562;14.440;2023-04-01T15:36:44;92513.00;;;14.90
41593;BMP180;28026;48.562;14.440;2023-04-01T15:52:49;92534.00;;;14.70
41593;BMP180;28026;48.562;14.440;2023-04-01T16:02:40;92536.00;;;14.70
41593;BMP180;28026;48.562;14.440;2023-04-01T16:06:10;92538.00;;;14.70
41593;BMP180;28026;48.562;14.440;2023-04-01T16:08:46;92544.00;;;14.60
41593;BMP180;28026;48.562;14.440;2023-04-01T16:11:56;92548.00;;;14.60
41593;BMP180;28026;48.562;14.440;2023-04-01T16:28:25;92560.00;;;14.50
41593;BMP180;28026;48.562;14.440;2023-04-01T16:31:53;92565.00;;;14.50
41593;BMP180;28026;48.562;14.440;2023-04-01T16:41:17;92572.00;;;14.40
41593;BMP180;28026;48.562;14.440;2023-04-01T16:47:06;92571.00;;;14.20
41593;BMP180;28026;48.562;14.440;2023-04-01T16:53:17;92574.00;;;14.10
41593;BMP180;28026;48.562;14.440;2023-04-01T16:56:07;92576.00;;;14.00
41593;BMP180;28026;48.562;14.440;2023-04-01T16:59:24;92579.00;;;14.00
41593;BMP180;28026;48.562;14.440;2023-04-01T17:02:13;92577.00;;;13.80
41593;BMP180;28026;48.562;14.440;2023-04-01T17:05:05;92579.00;;;13.80
41593;BMP180;28026;48.562;14.440;2023-04-01T17:08:03;92590.00;;;13.80
41593;BMP180;28026;48.562;14.440;2023-04-01T17:11:56;92585.00;;;13.80
41593;BMP180;28026;48.562;14.440;2023-04-01T17:17:51;92597.00;;;13.70
41593;BMP180;28026;48.562;14.440;2023-04-01T17:20:54;92595.00;;;13.60
41593;BMP180;28026;48.562;14.440;2023-04-01T17:23:51;92594.00;;;13.60
41593;BMP180;28026;48.562;14.440;2023-04-01T17:26:44;92594.00;;;13.60
41593;BMP180;28026;48.562;14.440;2023-04-01T17:36:06;92593.00;;;13.40
41593;BMP180;28026;48.562;14.440;2023-04-01T17:39:48;92585.00;;;13.40
41593;BMP180;28026;48.562;14.440;2023-04-01T17:42:52;92592.00;;;13.30
41593;BMP180;28026;48.562;14.440;2023-04-01T17:45:56;92599.00;;;13.40
41593;BMP180;28026;48.562;14.440;2023-04-01T18:04:37;92616.00;;;13.60
41593;BMP180;28026;48.562;14.440;2023-04-01T18:10:25;92619.00;;;13.70
41593;BMP180;28026;48.562;14.440;2023-04-01T18:13:41;92606.00;;;13.60
41593;BMP180;28026;48.562;14.440;2023-04-01T18:16:24;92617.00;;;13.60
41593;BMP180;28026;48.562;14.440;2023-04-01T18:25:37;92641.00;;;13.70
41593;BMP180;28026;48.562;14.440;2023-04-01T18:28:53;92642.00;;;13.70
41593;BMP180;28026;48.562;14.440;2023-04-01T18:31:38;92638.00;;;13.80
41593;BMP180;28026;48.562;14.440;2023-04-01T18:34:44;92651.00;;;13.80
41593;BMP180;28026;48.562;14.440;2023-04-01T18:44:46;92656.00;;;13.80
41593;BMP180;28026;48.562;14.440;2023-04-01T18:47:27;92650.00;;;13.80
41593;BMP180;28026;48.562;14.440;2023-04-01T18:50:24;92663.00;;;13.80
41593;BMP180;28026;48.562;14.440;2023-04-01T18:53:17;92660.00;;;13.90
41593;BMP180;28026;48.562;14.440;2023-04-01T18:56:04;92656.00;;;13.90
41593;BMP180;28026;48.562;14.440;2023-04-01T19:02:46;92669.00;;;13.90
41593;BMP180;28026;48.562;14.440;2023-04-01T19:05:36;92662.00;;;13.90
41593;BMP180;28026;48.562;14.440;2023-04-01T19:08:33;92669.00;;;13.90
41593;BMP180;28026;48.562;14.440;2023-04-01T19:11:36;92664.00;;;13.90
41593;BMP180;28026;48.562;14.440;2023-04-01T19:20:57;92669.00;;;13.80
41593;BMP180;28026;48.562;14.440;2023-04-01T19:24:35;92671.00;;;13.90
41593;BMP180;28026;48.562;14.440;2023-04-01T19:27:49;92663.00;;;13.80
41593;BMP180;28026;48.562;14.440;2023-04-01T19:31:30;92674.00;;;13.80
41593;BMP180;28026;48.562;14.440;2023-04-01T19:34:47;92677.00;;;13.80
41593;BMP180;28026;48.562;14.440;2023-04-01T19:37:56;92675.00;;;13.80
41593;BMP180;28026;48.562;14.440;2023-04-01T19:40:51;92678.00;;;13.80
41593;BMP180;28026;48.562;14.440;2023-04-01T19:43:48;92675.00;;;13.80
41593;BMP180;28026;48.562;14.440;2023-04-01T19:46:53;92677.00;;;13.80
41593;BMP180;28026;48.562;14.440;2023-04-01T19:49:50;92673.00;;;13.80
41593;BMP180;28026;48.562;14.440;2023-04-01T19:52:37;92672.00;;;13.80
41593;BMP180;28026;48.562;14.440;2023-04-01T19:55:35;92677.00;;;13.80
41593;BMP180;28026;48.562;14.440;2023-04-01T19:58:25;92677.00;;;13.80
41593;BMP180;28026;48.562;14.440;2023-04-01T20:01:10;92686.00;;;13.80
41593;BMP180;28026;48.562;14.440;2023-04-01T20:03:55;92690.00;;;13.80
41593;BMP180;28026;48.562;14.440;2023-04-01T20:12:42;92696.00;;;13.80
41593;BMP180;28026;48.562;14.440;2023-04-01T20:15:43;92703.00;;;13.80
41593;BMP180;28026;48.562;14.440;2023-04-01T20:18:32;92698.00;;;13.80
41593;BMP180;28026;48.562;14.440;2023-04-01T20:24:16;92707.00;;;13.80
41593;BMP180;28026;48.562;14.440;2023-04-01T20:27:42;92715.00;;;13.80
41593;BMP180;28026;48.562;14.440;2023-04-01T20:36:43;92703.00;;;13.80
41593;BMP180;28026;48.562;14.440;2023-04-01T20:39:57;92698.00;;;13.70
41593;BMP180;28026;48.562;14.440;2023-04-01T20:46:56;92689.00;;;13.70
41593;BMP180;28026;48.562;14.440;2023-04-01T20:53:36;92708.00;;;13.70
41593;BMP180;28026;48.562;14.440;2023-04-01T21:02:41;92723.00;;;13.70
41593;BMP180;28026;48.562;14.440;2023-04-01T21:31:45;92737.00;;;13.70
41593;BMP180;28026;48.562;14.440;2023-04-01T21:35:26;92748.00;;;13.70
41593;BMP180;28026;48.562;14.440;2023-04-01T21:54:26;92737.00;;;13.70
41593;BMP180;28026;48.562;14.440;2023-04-01T21:57:50;92748.00;;;13.70
41593;BMP180;28026;48.562;14.440;2023-04-01T22:07:21;92740.00;;;13.60
41593;BMP180;28026;48.562;14.440;2023-04-01T22:13:24;92738.00;;;13.70
41593;BMP180;28026;48.562;14.440;2023-04-01T22:22:06;92733.00;;;13.70
41593;BMP180;28026;48.562;14.440;2023-04-01T22:30:48;92729.00;;;13.60
41593;BMP180;28026;48.562;14.440;2023-04-01T22:33:53;92744.00;;;13.70
41593;BMP180;28026;48.562;14.440;2023-04-01T22:47:12;92741.00;;;13.60
41593;BMP180;28026;48.562;14.440;2023-04-01T22:49:47;92742.00;;;13.60
41593;BMP180;28026;48.562;14.440;2023-04-01T22:52:41;92744.00;;;13.70
41593;BMP180;28026;48.562;14.440;2023-04-01T22:55:35;92743.00;;;13.70
41593;BMP180;28026;48.562;14.440;2023-04-01T22:58:20;92741.00;;;13.70
41593;BMP180;28026;48.562;14.440;2023-04-01T23:01:03;92742.00;;;13.70
41593;BMP180;28026;48.562;14.440;2023-04-01T23:03:41;92743.00;;;13.70
41593;BMP180;28026;48.562;14.440;2023-04-01T23:06:38;92765.00;;;13.70
41593;BMP180;28026;48.562;14.440;2023-04-01T23:09:22;92757.00;;;13.70
41593;BMP180;28026;48.562;14.440;2023-04-01T23:12:05;92759.00;;;13.80
41593;BMP180;28026;48.562;14.440;2023-04-01T23:14:58;92758.00;;;13.80
41593;BMP180;28026;48.562;14.440;2023-04-01T23:17:50;92764.00;;;13.80
41593;BMP180;28026;48.562;14.440;2023-04-01T23:26:59;92772.00;;;13.80
41593;BMP180;28026;48.562;14.440;2023-04-01T23:29:37;92773.00;;;13.80
41593;BMP180;28026;48.562;14.440;2023-04-01T23:32:23;92770.00;;;13.80
41593;BMP180;28026;48.562;14.440;2023-04-01T23:34:59;92770.00;;;13.80
41593;BMP180;28026;48.562;14.440;2023-04-01T23:37:32;92765.00;;;13.80
41593;BMP180;28026;48.562;14.440;2023-04-01T23:40:03;92787.00;;;13.80
41593;BMP180;28026;48.562;14.440;2023-04-01T23:42:41;92784.00;;;13.80
41593;BMP180;28026;48.562;14.440;2023-04-01T23:45:17;92784.00;;;13.80
41593;BMP180;28026;48.562;14.440;2023-04-01T23:47:52;92777.00;;;13.80
41593;BMP180;28026;48.562;14.440;2023-04-01T23:50:25;92780.00;;;13.80
41593;BMP180;28026;48.562;14.440;2023-04-01T23:53:17;92785.00;;;13.80
41593;BMP180;28026;48.562;14.440;2023-04-01T23:55:52;92787.00;;;13.80
41593;BMP180;28026;48.562;14.440;2023-04-01T23:58:45;92792.00;;;13.80
